Time;durP1;ratioP1;P1;durP2;ratioP2;P2;SDS_P1;SDS_P2;PMS_P1;PMS_P2;Temp;Humidity;BMP_temperature;BMP_pressure;BME280_temperature;BME280_humidity;BME280_pressure;Samples;Min_cycle;Max_cycle;Signal;HPM_P1;HPM_P2
2021/06/18 00:01:58;;;;;;;10.75;6.55;;;;;;;26.06;62.96;100543.94;4771446;30;20552;-79
2021/06/18 00:05:02;;;;;;;11.90;7.82;;;;;;;25.93;62.36;100531.19;4771844;30;20052;-79
2021/06/18 00:08:07;;;;;;;8.65;6.88;;;;;;;25.73;62.24;100541.56;4772562;30;20048;-79
2021/06/18 00:11:11;;;;;;;8.98;6.90;;;;;;;25.76;62.56;100541.13;4772992;30;20047;-79
2021/06/18 00:14:16;;;;;;;8.02;6.68;;;;;;;25.84;62.81;100536.16;4770810;30;20047;-79
2021/06/18 00:17:20;;;;;;;11.23;6.93;;;;;;;25.73;62.69;100530.56;4770800;30;20059;-79
2021/06/18 00:20:24;;;;;;;7.40;6.70;;;;;;;25.70;62.80;100536.56;4771720;30;20043;-79
2021/06/18 00:23:29;;;;;;;7.38;6.68;;;;;;;25.82;62.80;100543.78;4772117;30;20506;-79
2021/06/18 00:26:33;;;;;;;10.30;6.85;;;;;;;25.89;62.66;100543.72;4772519;30;20062;-79
2021/06/18 00:29:38;;;;;;;10.23;6.85;;;;;;;25.82;62.59;100542.97;4770682;30;20060;-79
2021/06/18 00:32:42;;;;;;;7.53;6.70;;;;;;;25.74;63.12;100546.00;4771300;30;20067;-79
2021/06/18 00:35:46;;;;;;;9.45;7.00;;;;;;;25.73;63.22;100542.41;4771621;30;20055;-79
2021/06/18 00:38:51;;;;;;;9.10;6.97;;;;;;;25.82;62.81;100545.72;4771992;30;20071;-78
2021/06/18 00:41:55;;;;;;;7.60;6.50;;;;;;;25.87;62.59;100543.13;4772780;30;20051;-79
2021/06/18 00:44:59;;;;;;;11.32;6.80;;;;;;;25.79;62.71;100536.00;4770482;30;20519;-79
2021/06/18 00:48:05;;;;;;;10.85;6.82;;;;;;;25.58;62.74;100532.84;4774224;30;20082;-78
2021/06/18 00:51:10;;;;;;;7.88;6.60;;;;;;;25.59;62.87;100537.28;4778471;30;20054;-79
2021/06/18 00:54:27;;;;;;;7.05;6.10;;;;;;;25.64;63.08;100526.44;4790155;30;20050;-79
2021/06/18 00:57:32;;;;;;;6.97;6.10;;;;;;;25.62;63.01;100528.59;4789725;30;20059;-79
2021/06/18 01:00:36;;;;;;;8.70;7.03;;;;;;;25.65;62.80;100528.97;4790007;30;20074;-78
2021/06/18 01:03:40;;;;;;;7.45;6.75;;;;;;;25.60;62.79;100522.50;4787868;30;20046;-80
2021/06/18 01:06:52;;;;;;;8.15;6.55;;;;;;;25.50;62.78;100527.66;4788032;29;20064;-78
2021/06/18 01:10:28;;;;;;;8.57;6.15;;;;;;;25.41;62.79;100535.31;4789888;30;20056;-79
2021/06/18 01:13:35;;;;;;;7.25;6.20;;;;;;;25.37;63.18;100547.84;4789211;30;20046;-79
2021/06/18 01:16:53;;;;;;;7.07;6.35;;;;;;;25.21;63.42;100541.00;4790315;30;20050;-78
2021/06/18 01:20:41;;;;;;;8.00;6.32;;;;;;;25.09;63.56;100526.31;4778516;30;20070;-79
2021/06/18 01:24:13;;;;;;;7.05;6.35;;;;;;;25.00;63.57;100526.84;4771254;30;20050;-78
2021/06/18 01:27:35;;;;;;;7.22;6.53;;;;;;;25.06;63.53;100537.75;4789305;30;20062;-79
2021/06/18 01:30:40;;;;;;;10.15;7.18;;;;;;;25.01;64.47;100532.09;4778510;30;20161;-79
2021/06/18 01:33:50;;;;;;;8.75;6.68;;;;;;;25.01;65.00;100537.59;4787960;30;20051;-79
2021/06/18 01:37:03;;;;;;;8.38;7.22;;;;;;;25.03;64.84;100537.38;4789154;30;20058;-79
2021/06/18 01:40:10;;;;;;;7.65;6.75;;;;;;;25.06;64.96;100543.25;4789549;30;20050;-78
2021/06/18 01:43:17;;;;;;;10.38;7.15;;;;;;;25.03;65.34;100557.47;4788833;30;20058;-79
2021/06/18 01:46:26;;;;;;;10.30;6.55;;;;;;;24.95;64.72;100557.72;4778472;30;20499;-80
2021/06/18 01:49:33;;;;;;;11.18;7.50;;;;;;;24.87;65.14;100547.00;4787977;30;20066;-79
2021/06/18 01:52:41;;;;;;;10.20;9.30;;;;;;;24.84;65.06;100558.44;4778084;30;20047;-79
2021/06/18 01:55:48;;;;;;;11.55;8.52;;;;;;;24.80;65.45;100543.47;4787514;30;20050;-79
2021/06/18 01:58:56;;;;;;;10.50;8.60;;;;;;;24.78;65.73;100537.38;4777219;30;20039;-78
2021/06/18 02:02:03;;;;;;;15.75;9.60;;;;;;;24.70;65.44;100529.34;4789245;30;20043;-78
2021/06/18 02:05:08;;;;;;;9.15;8.25;;;;;;;24.75;65.85;100543.25;4787493;30;20063;-78
2021/06/18 02:08:14;;;;;;;8.48;7.50;;;;;;;24.74;65.21;100533.31;4788125;30;20119;-80
2021/06/18 02:11:18;;;;;;;8.63;7.70;;;;;;;24.50;64.64;100528.63;4788776;30;20070;-79
2021/06/18 02:14:27;;;;;;;10.63;7.53;;;;;;;24.38;63.92;100538.63;4786833;29;20058;-79
2021/06/18 02:17:33;;;;;;;10.15;7.28;;;;;;;24.21;64.50;100537.47;4776871;30;20043;-79
2021/06/18 02:20:43;;;;;;;9.70;6.80;;;;;;;24.03;64.38;100534.56;4777560;30;20055;-80
2021/06/18 02:23:48;;;;;;;8.35;7.40;;;;;;;23.97;64.87;100530.81;4787376;30;20055;-80
2021/06/18 02:26:54;;;;;;;11.75;7.15;;;;;;;23.90;64.94;100533.56;4776802;30;20064;-79
2021/06/18 02:29:59;;;;;;;8.43;7.00;;;;;;;23.84;64.97;100533.59;4788499;30;20054;-79
2021/06/18 02:33:10;;;;;;;7.88;6.68;;;;;;;23.98;64.86;100532.47;4786856;30;20058;-79
2021/06/18 02:36:15;;;;;;;8.18;7.28;;;;;;;24.07;65.03;100541.31;4787966;30;20054;-79
2021/06/18 02:39:20;;;;;;;12.60;6.82;;;;;;;24.05;63.76;100547.00;4788513;30;20070;-79
2021/06/18 02:42:26;;;;;;;8.63;6.80;;;;;;;24.06;63.63;100543.19;4786631;30;20047;-79
2021/06/18 02:45:29;;;;;;;9.10;6.93;;;;;;;24.09;63.18;100547.44;4787116;30;20046;-78
2021/06/18 02:48:46;;;;;;;9.07;6.03;;;;;;;24.20;61.17;100555.81;4787606;30;20059;-80
2021/06/18 02:51:57;;;;;;;6.68;5.60;;;;;;;24.25;60.08;100569.72;4788433;30;20050;-79
2021/06/18 02:55:00;;;;;;;10.55;5.68;;;;;;;24.41;59.68;100584.84;4777240;30;20070;-81
2021/06/18 02:58:17;;;;;;;9.70;5.25;;;;;;;24.42;59.17;100584.63;4754546;30;20161;-80
2021/06/18 03:01:09;;;;;;;10.25;6.00;;;;;;;24.17;58.69;100585.59;4765563;30;20510;-78
2021/06/18 03:04:23;;;;;;;12.82;6.05;;;;;;;23.85;59.32;100584.59;4758702;30;20054;-79
2021/06/18 03:07:29;;;;;;;8.70;5.40;;;;;;;23.80;59.85;100577.03;4760165;30;20074;-79
2021/06/18 03:10:43;;;;;;;9.70;5.60;;;;;;;23.90;60.14;100587.53;4760344;30;20148;-79
2021/06/18 03:13:51;;;;;;;7.60;5.75;;;;;;;23.92;59.69;100588.19;4760612;30;20059;-79
2021/06/18 03:17:01;;;;;;;9.43;6.07;;;;;;;23.74;61.40;100596.25;4760248;30;20055;-79
2021/06/18 03:20:14;;;;;;;7.43;6.00;;;;;;;23.40;62.08;100591.88;4760422;30;20055;-79
2021/06/18 03:23:21;;;;;;;9.95;5.72;;;;;;;23.25;62.53;100605.75;4760663;30;20055;-80
2021/06/18 03:26:26;;;;;;;7.72;6.78;;;;;;;23.09;62.91;100594.34;4759542;30;20434;-79
2021/06/18 03:29:31;;;;;;;9.80;7.20;;;;;;;22.96;63.47;100605.31;4760130;30;20137;-80
2021/06/18 03:32:37;;;;;;;7.30;6.60;;;;;;;22.97;64.18;100601.50;4760111;30;20050;-80
2021/06/18 03:35:42;;;;;;;8.60;6.85;;;;;;;22.83;65.10;100610.75;4774551;30;20066;-79
2021/06/18 03:38:49;;;;;;;15.07;7.10;;;;;;;22.77;64.98;100601.47;4786188;30;20060;-79
2021/06/18 03:41:53;;;;;;;9.07;6.35;;;;;;;22.69;64.86;100607.13;4786938;30;20047;-79
2021/06/18 03:44:59;;;;;;;7.45;6.63;;;;;;;22.52;64.43;100609.38;4787363;30;20066;-79
2021/06/18 03:48:04;;;;;;;12.25;6.40;;;;;;;22.36;64.65;100603.44;4774396;30;20055;-80
2021/06/18 03:51:09;;;;;;;9.18;5.93;;;;;;;22.36;64.16;100598.81;4776265;30;20055;-80
2021/06/18 03:54:13;;;;;;;7.68;6.15;;;;;;;22.51;63.68;100607.72;4787087;30;20070;-81
2021/06/18 03:57:19;;;;;;;7.47;5.35;;;;;;;22.58;62.41;100608.56;4776402;30;20058;-80
2021/06/18 04:00:24;;;;;;;12.98;5.47;;;;;;;22.60;61.68;100606.47;4785808;30;20046;-79
2021/06/18 04:03:31;;;;;;;8.02;5.18;;;;;;;22.58;61.39;100608.56;4786073;30;20054;-80
2021/06/18 04:06:36;;;;;;;7.72;5.07;;;;;;;22.53;61.37;100607.50;4786158;29;20058;-80
2021/06/18 04:09:41;;;;;;;8.18;5.00;;;;;;;22.57;60.24;100606.88;4787447;30;20054;-81
2021/06/18 04:12:49;;;;;;;5.47;4.50;;;;;;;22.56;59.17;100607.09;4786462;30;20058;-80
2021/06/18 04:15:54;;;;;;;10.63;5.00;;;;;;;22.66;58.84;100610.31;4786819;30;20412;-80
2021/06/18 04:18:58;;;;;;;10.25;4.05;;;;;;;22.72;57.72;100604.00;4787257;30;20060;-80
2021/06/18 04:22:05;;;;;;;9.02;4.32;;;;;;;22.76;56.62;100604.44;4785416;30;20047;-81
2021/06/18 04:25:09;;;;;;;8.13;3.88;;;;;;;22.99;56.35;100616.69;4785879;30;20046;-79
2021/06/18 04:28:15;;;;;;;7.53;3.92;;;;;;;23.15;55.65;100621.78;4786735;30;20135;-80
2021/06/18 04:31:19;;;;;;;4.63;3.55;;;;;;;23.18;55.21;100623.25;4787271;30;20052;-80
2021/06/18 04:34:24;;;;;;;5.53;3.85;;;;;;;23.18;54.40;100617.75;4785239;30;20054;-80
2021/06/18 04:37:28;;;;;;;8.27;3.72;;;;;;;23.60;53.34;100620.06;4788243;29;20070;-80
2021/06/18 04:40:33;;;;;;;6.80;3.40;;;;;;;23.76;51.93;100614.16;4788905;29;20046;-80
2021/06/18 04:43:37;;;;;;;7.47;3.60;;;;;;;23.89;51.62;100614.16;4789875;30;20522;-80
2021/06/18 04:46:41;;;;;;;6.95;3.08;;;;;;;24.04;51.45;100640.47;4790361;30;20050;-79
2021/06/18 04:49:47;;;;;;;7.78;3.10;;;;;;;24.07;50.52;100635.44;4788299;30;20047;-80
2021/06/18 04:52:52;;;;;;;6.03;2.83;;;;;;;24.58;50.12;100641.78;4788938;30;20066;-79
2021/06/18 04:55:56;;;;;;;6.35;3.13;;;;;;;25.23;48.71;100660.88;4788654;30;20062;-81
2021/06/18 04:59:00;;;;;;;9.65;3.20;;;;;;;25.80;47.21;100657.88;4791295;30;20067;-79
2021/06/18 05:02:06;;;;;;;11.13;2.90;;;;;;;26.20;45.57;100656.41;4791215;30;20603;-80
2021/06/18 05:05:11;;;;;;;7.25;2.75;;;;;;;26.36;45.39;100654.97;4790442;30;20054;-80
2021/06/18 05:08:15;;;;;;;8.98;2.60;;;;;;;26.25;44.83;100652.97;4780065;30;20062;-80
2021/06/18 05:11:23;;;;;;;4.95;2.85;;;;;;;26.45;44.60;100657.16;4790802;30;20054;-80
2021/06/18 05:14:27;;;;;;;7.78;3.40;;;;;;;26.46;44.51;100658.88;4790081;29;20054;-81
2021/06/18 05:17:31;;;;;;;6.80;3.10;;;;;;;26.25;44.70;100672.22;4790182;29;20506;-81
2021/06/18 05:20:36;;;;;;;5.82;2.55;;;;;;;26.30;45.08;100666.88;4791165;30;20070;-79
2021/06/18 05:23:40;;;;;;;8.23;2.85;;;;;;;26.40;44.46;100661.69;4791141;30;20063;-80
2021/06/18 05:26:45;;;;;;;5.13;2.50;;;;;;;26.54;44.23;100668.69;4779601;30;20066;-81
2021/06/18 05:29:49;;;;;;;5.18;3.05;;;;;;;26.96;43.96;100675.19;4790964;30;20077;-77
2021/06/18 05:32:54;;;;;;;11.40;3.38;;;;;;;27.18;47.28;100676.34;4784178;29;20058;-77
2021/06/18 05:35:58;;;;;;;9.88;3.78;;;;;;;27.07;49.08;100688.16;4790306;30;20043;-76
2021/06/18 05:39:03;;;;;;;9.23;3.72;;;;;;;26.98;49.12;100682.16;4787832;30;20054;-77
2021/06/18 05:42:10;;;;;;;10.88;3.70;;;;;;;26.62;49.89;100684.91;4788124;30;20074;-83
2021/06/18 05:45:15;;;;;;;11.05;4.13;;;;;;;26.35;50.79;100683.53;4790396;30;20066;-76
2021/06/18 05:48:19;;;;;;;8.20;3.72;;;;;;;26.23;49.41;100675.22;4778317;30;20052;-76
2021/06/18 05:51:24;;;;;;;9.55;3.30;;;;;;;25.94;48.39;100677.84;4779349;30;20054;-79
2021/06/18 05:54:29;;;;;;;8.30;3.00;;;;;;;25.84;47.61;100676.44;4789782;29;20058;-75
2021/06/18 05:57:33;;;;;;;4.75;2.85;;;;;;;25.87;47.38;100683.41;4786243;29;20058;-86
2021/06/18 06:00:37;;;;;;;25.25;21.15;;;;;;;25.66;48.68;100679.16;4784729;30;20058;-81
2021/06/18 06:03:42;;;;;;;24.08;18.73;;;;;;;25.77;49.08;100688.56;4789546;30;20480;-79
2021/06/18 06:06:46;;;;;;;23.52;14.18;;;;;;;26.03;49.07;100676.47;4790235;30;20055;-80
2021/06/18 06:09:50;;;;;;;11.68;3.30;;;;;;;26.11;48.85;100684.44;4790333;30;20047;-82
2021/06/18 06:12:54;;;;;;;11.70;3.30;;;;;;;26.20;48.32;100675.66;4789247;29;20039;-77
2021/06/18 06:15:59;;;;;;;10.43;3.50;;;;;;;26.29;49.35;100673.47;4789512;30;20054;-83
2021/06/18 06:19:03;;;;;;;4.82;2.70;;;;;;;26.34;49.87;100679.13;4776567;29;20070;-84
2021/06/18 06:22:07;;;;;;;10.95;3.55;;;;;;;26.58;50.17;100682.84;4787396;29;20055;-77
2021/06/18 06:25:13;;;;;;;11.00;3.55;;;;;;;26.68;50.26;100678.50;4776107;30;20400;-79
2021/06/18 06:30:44;;;;;;;12.35;3.78;;;;;;;27.54;48.95;100689.16;4780993;30;20035;-83
2021/06/18 06:33:49;;;;;;;11.25;3.00;;;;;;;28.49;47.12;100693.38;4782850;30;20047;-84
2021/06/18 06:36:53;;;;;;;12.20;3.30;;;;;;;29.48;45.05;100686.53;4783389;29;20048;-81
2021/06/18 06:39:58;;;;;;;11.55;3.42;;;;;;;30.18;43.42;100687.69;4785412;30;20070;-86
2021/06/18 06:43:03;;;;;;;11.20;3.47;;;;;;;30.86;42.07;100687.22;4777464;30;20403;-78
2021/06/18 06:46:07;;;;;;;13.02;3.33;;;;;;;30.67;42.30;100685.03;4788811;30;20047;-81
2021/06/18 06:49:12;;;;;;;10.00;3.03;;;;;;;30.75;41.46;100681.81;4788656;30;20408;-80
2021/06/18 06:52:18;;;;;;;10.82;3.35;;;;;;;30.62;42.91;100687.75;4778209;30;20058;-87
2021/06/18 06:55:23;;;;;;;8.50;3.08;;;;;;;31.00;41.78;100692.41;4788076;30;20062;-86
2021/06/18 06:58:27;;;;;;;11.13;3.45;;;;;;;32.63;38.53;100695.19;4788315;29;20059;-82
2021/06/18 07:01:32;;;;;;;6.70;3.35;;;;;;;33.84;35.77;100678.75;4777132;30;20082;-81
2021/06/18 07:04:36;;;;;;;5.50;3.28;;;;;;;35.20;33.79;100681.13;4770853;30;20059;-82
2021/06/18 07:07:42;;;;;;;11.70;3.40;;;;;;;37.80;29.95;100674.72;4760157;30;20078;-84
2021/06/18 07:10:48;;;;;;;10.88;3.00;;;;;;;41.97;25.33;100666.97;4770770;30;20507;-84
2021/06/18 07:13:52;;;;;;;14.27;3.53;;;;;;;44.77;22.52;100668.16;4771178;30;20052;-85
2021/06/18 07:16:57;;;;;;;8.50;3.10;;;;;;;46.33;20.80;100676.47;4770805;30;20071;-81
2021/06/18 07:20:02;;;;;;;9.63;2.40;;;;;;;47.60;19.94;100671.81;4776256;30;20054;-78
2021/06/18 07:23:06;;;;;;;8.85;3.08;;;;;;;47.81;19.63;100679.13;4778868;30;20066;-79
2021/06/18 07:26:11;;;;;;;13.13;2.72;;;;;;;48.33;19.21;100685.03;4784418;30;20059;-80
2021/06/18 07:29:15;;;;;;;11.02;2.70;;;;;;;46.33;20.42;100691.50;4787747;30;20059;-87
2021/06/18 07:32:21;;;;;;;10.15;3.20;;;;;;;46.18;21.05;100686.63;4788362;30;20488;-87
2021/06/18 07:35:26;;;;;;;16.10;5.65;;;;;;;46.20;20.69;100684.25;4777376;30;20058;-85
2021/06/18 07:38:30;;;;;;;19.50;12.43;;;;;;;46.35;20.54;100683.44;4788555;30;20619;-81
2021/06/18 07:41:35;;;;;;;6.53;3.65;;;;;;;48.39;19.27;100677.81;4777032;30;20519;-84
2021/06/18 07:44:39;;;;;;;10.90;2.58;;;;;;;49.47;17.86;100677.03;4777138;30;20064;-80
2021/06/18 07:47:44;;;;;;;13.55;2.78;;;;;;;46.37;20.45;100672.53;4788483;30;20055;-85
2021/06/18 07:50:48;;;;;;;10.90;2.90;;;;;;;43.48;22.63;100670.81;4787518;29;20062;-81
2021/06/18 07:53:53;;;;;;;10.52;2.80;;;;;;;44.76;21.38;100668.53;4788440;30;20062;-83
2021/06/18 07:56:57;;;;;;;9.98;2.85;;;;;;;45.54;20.93;100671.78;4788445;30;20127;-85
2021/06/18 08:00:04;;;;;;;5.05;2.90;;;;;;;45.01;20.92;100673.00;4788552;30;20075;-81
2021/06/18 08:03:16;;;;;;;5.78;2.70;;;;;;;45.99;20.80;100672.31;4788127;30;20066;-79
2021/06/18 08:06:20;;;;;;;8.23;2.70;;;;;;;45.35;20.07;100657.47;4787651;30;20054;-81
2021/06/18 08:09:25;;;;;;;10.80;2.53;;;;;;;44.31;22.00;100657.28;4787775;30;20507;-84
2021/06/18 08:12:29;;;;;;;6.40;2.90;;;;;;;42.18;23.00;100655.78;4790844;29;20062;-83
2021/06/18 08:15:33;;;;;;;6.45;2.58;;;;;;;41.22;23.82;100659.03;4791153;30;20062;-79
2021/06/18 08:18:38;;;;;;;4.75;2.53;;;;;;;38.88;25.23;100649.94;4788975;30;20062;-79
2021/06/18 08:21:43;;;;;;;4.95;3.08;;;;;;;38.13;27.30;100649.47;4791468;30;20055;-79
2021/06/18 08:24:49;;;;;;;5.30;2.85;;;;;;;37.50;28.36;100647.25;4790505;30;20063;-79
2021/06/18 08:27:53;;;;;;;5.38;2.67;;;;;;;36.94;29.31;100652.84;4790434;30;20058;-78
2021/06/18 08:30:57;;;;;;;5.80;2.67;;;;;;;37.25;28.79;100653.22;4790390;30;20408;-79
2021/06/18 08:34:02;;;;;;;7.82;2.88;;;;;;;36.91;29.48;100652.59;4790842;30;20070;-79
2021/06/18 08:37:06;;;;;;;5.15;2.92;;;;;;;37.01;30.26;100658.09;4780121;30;20078;-84
2021/06/18 08:40:11;;;;;;;8.93;3.40;;;;;;;35.81;29.74;100647.13;4790696;30;20407;-84
2021/06/18 08:43:16;;;;;;;6.80;3.20;;;;;;;35.55;32.14;100652.13;4790772;30;20226;-85
2021/06/18 08:46:21;;;;;;;5.25;2.92;;;;;;;36.18;31.03;100658.53;4789668;30;20123;-82
2021/06/18 08:49:26;;;;;;;6.68;2.85;;;;;;;36.17;30.61;100656.03;4790006;30;20076;-79
2021/06/18 08:52:30;;;;;;;5.25;3.50;;;;;;;36.10;30.62;100653.56;4790978;30;20058;-82
2021/06/18 08:55:35;;;;;;;6.43;3.15;;;;;;;36.03;30.32;100657.84;4789998;30;20058;-80
2021/06/18 08:58:39;;;;;;;6.47;3.65;;;;;;;35.56;31.54;100652.94;4789675;30;20522;-80
2021/06/18 09:01:43;;;;;;;9.15;3.33;;;;;;;35.45;31.37;100654.13;4790998;30;20070;-82
2021/06/18 09:05:10;;;;;;;8.45;3.80;;;;;;;34.59;32.53;100652.69;4789568;30;20058;-79
2021/06/18 09:08:19;;;;;;;9.65;3.75;;;;;;;34.47;33.24;100649.34;4790725;30;20127;-81
2021/06/18 09:11:45;;;;;;;6.82;3.58;;;;;;;34.46;33.59;100644.91;4784749;29;20412;-83
2021/06/18 09:14:49;;;;;;;7.45;3.75;;;;;;;34.08;34.39;100653.94;4787731;29;20070;-84
2021/06/18 09:17:53;;;;;;;27.83;24.35;;;;;;;33.83;34.04;100649.22;4790799;30;20054;-77
2021/06/18 09:21:03;;;;;;;9.88;4.68;;;;;;;33.53;34.49;100653.97;4790369;30;20447;-84
2021/06/18 09:24:08;;;;;;;7.85;4.55;;;;;;;33.80;34.79;100648.97;4789634;29;20054;-84
2021/06/18 09:27:13;;;;;;;6.82;3.90;;;;;;;33.71;34.96;100662.59;4790285;30;20050;-81
2021/06/18 09:30:28;;;;;;;8.15;4.10;;;;;;;33.55;34.67;100652.59;4775478;29;20050;-84
2021/06/18 09:33:42;;;;;;;6.40;4.10;;;;;;;33.32;35.03;100653.09;4778137;29;20062;-82
2021/06/18 09:36:47;;;;;;;5.65;3.83;;;;;;;33.04;35.42;100673.94;4790155;30;20054;-84
2021/06/18 09:40:10;;;;;;;5.85;4.07;;;;;;;33.08;36.17;100657.53;4779275;30;20063;-84
2021/06/18 09:43:16;;;;;;;8.10;3.85;;;;;;;33.26;35.40;100646.69;4778859;30;20047;-80
2021/06/18 09:46:38;;;;;;;7.80;3.92;;;;;;;33.51;35.68;100658.94;4790096;30;20403;-79
2021/06/18 09:49:42;;;;;;;10.50;4.22;;;;;;;33.61;34.59;100658.97;4791236;30;20416;-83
2021/06/18 09:52:46;;;;;;;9.85;4.65;;;;;;;33.27;34.42;100644.75;4795410;30;20058;-79
2021/06/18 09:56:07;;;;;;;9.93;4.35;;;;;;;33.52;35.33;100643.94;4791865;30;20411;-79
2021/06/18 09:59:23;;;;;;;12.27;4.25;;;;;;;33.91;34.73;100640.31;4778684;30;20522;-81
2021/06/18 10:03:10;;;;;;;6.05;3.42;;;;;;;34.03;33.47;100643.63;4790005;30;20062;-86
2021/06/18 10:06:15;;;;;;;6.15;4.10;;;;;;;33.89;34.08;100648.09;4733743;30;20056;-81
2021/06/18 10:09:19;;;;;;;7.07;3.95;;;;;;;33.79;33.80;100636.97;4716513;30;20052;-83
2021/06/18 10:12:23;;;;;;;9.45;4.00;;;;;;;33.90;33.76;100633.03;4716774;30;20068;-82
2021/06/18 10:15:31;;;;;;;7.93;3.80;;;;;;;34.07;33.54;100643.09;4724482;30;20461;-82
2021/06/18 10:18:35;;;;;;;8.75;4.05;;;;;;;34.08;32.61;100645.59;4740534;30;20064;-83
2021/06/18 10:22:19;;;;;;;6.30;4.00;;;;;;;34.29;33.70;100640.78;4748916;30;20056;-80
2021/06/18 10:25:29;;;;;;;7.82;4.20;;;;;;;34.52;32.51;100626.19;4756106;30;20055;-82
2021/06/18 10:28:34;;;;;;;9.00;4.18;;;;;;;34.64;32.45;100632.31;4750594;30;20059;-83
2021/06/18 10:31:39;;;;;;;7.45;3.70;;;;;;;34.18;32.63;100622.41;4746239;30;20062;-84
2021/06/18 10:34:43;;;;;;;6.72;3.75;;;;;;;34.38;33.49;100625.97;4744374;30;20508;-77
2021/06/18 10:37:48;;;;;;;7.80;3.50;;;;;;;34.31;33.45;100628.25;4788285;29;20058;-79
2021/06/18 10:40:54;;;;;;;9.52;8.38;;;;;;;33.95;33.98;100624.69;4778056;30;20058;-84
2021/06/18 10:43:59;;;;;;;5.75;4.28;;;;;;;33.97;33.77;100628.00;4789241;30;20062;-83
2021/06/18 10:47:04;;;;;;;7.45;4.03;;;;;;;34.18;34.38;100619.63;4786408;30;20063;-85
2021/06/18 10:50:08;;;;;;;7.20;3.47;;;;;;;34.14;33.54;100621.34;4787951;29;20411;-85
2021/06/18 10:53:20;;;;;;;10.13;3.95;;;;;;;34.11;34.16;100622.72;4777331;30;20058;-82
2021/06/18 10:56:46;;;;;;;7.77;3.93;;;;;;;34.23;33.62;100619.63;4788823;30;20050;-82
2021/06/18 10:59:52;;;;;;;9.43;4.07;;;;;;;34.32;33.08;100617.94;4770361;30;20062;-84
2021/06/18 11:02:56;;;;;;;6.97;3.47;;;;;;;34.46;33.78;100605.03;4781284;30;20396;-83
2021/06/18 11:06:00;;;;;;;7.20;3.75;;;;;;;34.19;32.98;100608.22;4789144;30;20511;-84
2021/06/18 11:09:04;;;;;;;10.43;3.85;;;;;;;34.16;33.50;100597.63;4788523;30;20074;-83
2021/06/18 11:12:39;;;;;;;5.95;3.80;;;;;;;33.69;33.82;100608.31;4781378;29;20051;-83
2021/06/18 11:15:45;;;;;;;12.82;4.25;;;;;;;33.68;34.83;100599.09;4757004;30;20055;-86
2021/06/18 11:18:49;;;;;;;7.68;4.30;;;;;;;33.83;33.51;100590.72;4776143;30;20058;-84
2021/06/18 11:21:55;;;;;;;10.07;3.83;;;;;;;33.91;34.19;100589.31;4788258;30;20050;-77
2021/06/18 11:24:59;;;;;;;6.35;4.10;;;;;;;34.31;33.23;100591.16;4788617;30;20051;-75
2021/06/18 11:28:22;;;;;;;6.18;3.80;;;;;;;34.32;33.46;100595.63;4787833;30;20415;-79
2021/06/18 11:31:41;;;;;;;7.40;3.92;;;;;;;34.37;33.69;100585.25;4788342;30;20059;-82
2021/06/18 11:34:46;;;;;;;4.88;3.40;;;;;;;34.20;33.33;100589.53;4759560;30;20054;-75
2021/06/18 11:37:51;;;;;;;11.52;3.80;;;;;;;33.67;35.34;100596.63;4780550;30;20050;-75
2021/06/18 11:40:58;;;;;;;6.78;3.58;;;;;;;33.59;34.94;100598.00;4788496;30;20054;-86
2021/06/18 11:44:04;;;;;;;10.38;3.85;;;;;;;33.29;35.64;100601.59;4787686;30;20059;-77
2021/06/18 11:47:09;;;;;;;11.15;3.53;;;;;;;33.36;35.32;100590.19;4787835;29;20078;-78
2021/06/18 11:50:14;;;;;;;7.57;3.80;;;;;;;33.29;35.52;100595.19;4778003;29;20047;-75
2021/06/18 11:53:20;;;;;;;34.72;31.25;;;;;;;33.12;34.83;100589.06;4780055;30;20119;-78
2021/06/18 11:56:30;;;;;;;9.57;6.88;;;;;;;33.16;35.55;100595.78;4791681;30;20048;-78
2021/06/18 11:59:35;;;;;;;8.15;4.32;;;;;;;33.12;35.53;100586.28;4791578;30;20054;-83
2021/06/18 12:02:39;;;;;;;7.22;4.15;;;;;;;32.89;36.02;100584.03;4780241;30;20074;-85
2021/06/18 12:05:45;;;;;;;6.50;3.97;;;;;;;32.89;36.07;100589.59;4791965;30;20400;-75
2021/06/18 12:09:16;;;;;;;8.18;3.95;;;;;;;32.90;35.86;100580.13;4790887;30;20062;-78
2021/06/18 12:12:21;;;;;;;7.45;4.22;;;;;;;32.52;36.42;100573.91;4790354;30;20068;-79
2021/06/18 12:15:31;;;;;;;8.65;3.72;;;;;;;32.50;36.36;100584.44;4791514;30;20051;-82
2021/06/18 12:18:35;;;;;;;6.43;4.10;;;;;;;32.58;36.16;100578.41;4782183;29;20166;-77
2021/06/18 12:21:39;;;;;;;8.70;3.95;;;;;;;32.76;37.08;100572.28;4791274;30;20395;-76
2021/06/18 12:24:47;;;;;;;7.13;3.90;;;;;;;32.78;36.59;100577.59;4780344;30;20059;-76
2021/06/18 12:27:58;;;;;;;11.75;4.03;;;;;;;32.84;36.71;100572.91;4791702;30;20063;-85
2021/06/18 12:31:02;;;;;;;6.10;3.67;;;;;;;32.87;37.00;100575.94;4791250;30;20063;-83
2021/06/18 12:34:07;;;;;;;8.60;3.85;;;;;;;32.90;35.94;100563.44;4779027;30;20063;-82
2021/06/18 12:37:11;;;;;;;8.55;3.90;;;;;;;32.81;35.92;100562.31;4790849;30;20059;-82
2021/06/18 12:40:21;;;;;;;7.15;4.15;;;;;;;32.83;36.86;100560.09;4790999;30;20514;-83
2021/06/18 12:43:25;;;;;;;11.43;4.07;;;;;;;32.69;36.65;100559.75;4790964;30;20058;-81
2021/06/18 12:46:29;;;;;;;8.60;3.90;;;;;;;32.44;36.65;100556.91;4791942;30;20058;-78
2021/06/18 12:49:34;;;;;;;15.98;4.65;;;;;;;32.50;36.66;100561.38;4790129;30;20074;-84
2021/06/18 12:52:48;;;;;;;6.15;4.00;;;;;;;32.38;35.79;100556.06;4790932;30;20051;-84
2021/06/18 12:55:53;;;;;;;7.07;3.90;;;;;;;32.43;36.76;100550.50;4790516;30;20062;-82
2021/06/18 12:59:12;;;;;;;7.47;3.33;;;;;;;32.49;36.89;100546.63;4788444;29;20070;-80
2021/06/18 13:02:17;;;;;;;10.07;3.97;;;;;;;32.42;36.37;100548.84;4779664;30;20424;-79
2021/06/18 13:05:22;;;;;;;5.63;3.55;;;;;;;32.50;37.41;100544.69;4790698;30;20074;-83
2021/06/18 13:08:27;;;;;;;13.50;4.10;;;;;;;32.52;36.44;100545.28;4790032;30;20070;-84
2021/06/18 13:11:34;;;;;;;6.65;3.55;;;;;;;32.62;36.31;100548.91;4788048;30;20043;-79
2021/06/18 13:14:44;;;;;;;8.88;3.88;;;;;;;32.74;35.99;100540.31;4788622;30;20058;-77
2021/06/18 13:17:53;;;;;;;9.57;3.80;;;;;;;32.55;35.57;100539.19;4786129;29;20074;-79
2021/06/18 13:21:04;;;;;;;8.82;4.00;;;;;;;32.49;35.69;100543.03;4788803;30;20419;-74
2021/06/18 13:24:12;;;;;;;12.93;4.28;;;;;;;32.42;35.55;100546.06;4789009;30;20055;-78
2021/06/18 13:27:17;;;;;;;7.30;3.72;;;;;;;32.54;35.56;100527.22;4788055;29;20052;-77
2021/06/18 13:30:21;;;;;;;10.63;3.58;;;;;;;32.60;34.86;100528.06;4778684;29;20074;-78
2021/06/18 13:33:26;;;;;;;7.43;3.30;;;;;;;32.74;34.33;100523.63;4789351;30;20046;-79
2021/06/18 13:36:36;;;;;;;6.65;3.50;;;;;;;32.83;34.38;100524.78;4789342;30;20054;-78
2021/06/18 13:39:54;;;;;;;6.38;3.67;;;;;;;32.89;34.79;100525.63;4789316;30;20405;-78
2021/06/18 13:42:58;;;;;;;7.35;3.50;;;;;;;32.77;34.67;100523.94;4789443;30;20062;-78
2021/06/18 13:46:03;;;;;;;6.88;3.45;;;;;;;32.79;34.66;100518.06;4790529;30;20063;-76
2021/06/18 13:49:09;;;;;;;7.38;3.65;;;;;;;32.65;34.50;100522.50;4789917;30;20066;-76
2021/06/18 13:52:13;;;;;;;9.98;3.63;;;;;;;32.65;34.29;100520.56;4790465;30;20061;-76
2021/06/18 13:55:18;;;;;;;9.80;3.47;;;;;;;32.65;34.65;100517.78;4790428;30;20066;-76
2021/06/18 13:58:22;;;;;;;4.97;3.78;;;;;;;32.75;34.99;100520.59;4790285;30;20070;-76
2021/06/18 14:01:27;;;;;;;5.75;3.63;;;;;;;32.74;34.55;100518.91;4790464;30;20404;-77
2021/06/18 14:04:31;;;;;;;11.85;7.47;;;;;;;32.82;34.46;100522.25;4790154;30;20404;-77
2021/06/18 14:07:36;;;;;;;40.00;36.15;;;;;;;32.92;34.38;100522.25;4790041;30;20479;-77
2021/06/18 14:10:40;;;;;;;8.45;3.70;;;;;;;32.85;34.83;100513.34;4789714;30;20055;-76
2021/06/18 14:13:45;;;;;;;10.52;3.80;;;;;;;32.98;34.95;100512.81;4790013;30;20058;-76
2021/06/18 14:16:53;;;;;;;7.15;3.80;;;;;;;32.98;34.53;100504.47;4790283;30;20047;-77
2021/06/18 14:19:59;;;;;;;7.47;3.83;;;;;;;32.88;35.15;100504.47;4789897;30;20062;-76
2021/06/18 14:23:03;;;;;;;9.70;3.70;;;;;;;32.99;34.78;100503.34;4789827;30;20070;-76
2021/06/18 14:26:08;;;;;;;5.15;3.03;;;;;;;33.12;35.03;100497.25;4789785;30;20070;-76
2021/06/18 14:29:21;;;;;;;6.13;4.10;;;;;;;33.10;34.20;100496.72;4789661;30;20488;-76